createdAt,value
2018-10-09T08:24:12.167Z,1010.71
2018-10-09T08:25:12.200Z,1010.88
2018-10-09T08:26:12.126Z,1010.77
2018-10-09T08:27:12.117Z,1010.82
2018-10-09T08:28:12.117Z,1010.71
2018-10-09T08:29:12.094Z,1010.63
2018-10-09T08:30:12.100Z,1010.66
2018-10-09T08:31:12.094Z,1010.62
2018-10-09T08:32:12.096Z,1010.70
2018-10-09T08:33:12.051Z,1010.79
2018-10-09T08:34:12.053Z,1010.76
2018-10-09T08:35:12.033Z,1010.80
2018-10-09T08:36:12.035Z,1010.78
2018-10-09T08:37:12.009Z,1010.80
2018-10-09T08:38:11.995Z,1010.83
2018-10-09T08:39:11.985Z,1010.79
2018-10-09T08:40:12.040Z,1010.78
2018-10-09T08:41:11.997Z,1010.77
2018-10-09T08:42:11.951Z,1010.76
2018-10-09T08:43:11.949Z,1010.79
2018-10-09T08:44:11.932Z,1010.79
2018-10-09T08:45:11.918Z,1010.80
2018-10-09T08:46:11.996Z,1010.86
2018-10-09T08:47:11.909Z,1010.85
2018-10-09T08:48:11.886Z,1010.85
2018-10-09T08:49:11.874Z,1010.85
2018-10-09T08:50:11.865Z,1010.85
2018-10-09T08:51:11.856Z,1010.91
2018-10-09T08:52:11.865Z,1010.89
2018-10-09T08:53:11.834Z,1010.90
2018-10-09T08:54:11.839Z,1010.86
2018-10-09T08:55:11.812Z,1010.84
2018-10-09T08:56:11.802Z,1010.86
2018-10-09T08:57:11.841Z,1010.89
2018-10-09T08:58:11.783Z,1010.90
2018-10-09T08:59:11.789Z,1010.92
2018-10-09T09:00:11.756Z,1010.85
2018-10-09T09:01:11.746Z,1010.93
2018-10-09T09:02:11.734Z,1010.85
2018-10-09T09:03:11.723Z,1010.89
2018-10-09T09:04:11.742Z,1010.89
2018-10-09T09:05:11.706Z,1010.89
2018-10-09T09:06:11.691Z,1010.93
2018-10-09T09:08:09.379Z,1011.01
2018-10-09T09:09:09.351Z,1011.01
2018-10-09T09:10:09.357Z,1011.02
2018-10-09T09:11:09.329Z,1010.99
2018-10-09T09:12:09.324Z,1011.04
2018-10-09T09:13:09.307Z,1011.05
2018-10-09T09:14:09.415Z,1011.02
2018-10-09T09:15:09.341Z,1011.02
2018-10-09T09:16:09.275Z,1011.00
2018-10-09T09:17:09.271Z,1010.99
2018-10-09T09:18:09.264Z,1010.97
2018-10-09T09:19:09.241Z,1010.98
2018-10-09T09:20:09.323Z,1010.98
2018-10-09T09:21:09.255Z,1010.93
2018-10-09T09:22:09.209Z,1010.97
2018-10-09T09:23:09.199Z,1010.95
2018-10-09T09:24:09.194Z,1010.96
2018-10-09T09:25:09.176Z,1010.89
2018-10-09T09:26:09.241Z,1010.95
2018-10-09T09:27:09.330Z,1010.91
2018-10-09T09:28:09.147Z,1010.91
2018-10-09T09:29:09.435Z,1010.87
2018-10-09T09:30:09.124Z,1010.87
2018-10-09T09:31:09.114Z,1010.87
2018-10-09T09:32:09.099Z,1010.90
2018-10-09T09:33:09.164Z,1010.90
2018-10-09T09:34:09.136Z,1010.89
2018-10-09T09:35:09.069Z,1010.88
2018-10-09T09:36:09.068Z,1010.86
2018-10-09T09:37:09.045Z,1010.93
2018-10-09T09:38:09.035Z,1010.94
2018-10-09T09:39:09.080Z,1010.95
2018-10-09T09:40:09.033Z,1011.04
2018-10-09T09:41:09.002Z,1011.05
2018-10-09T09:42:08.990Z,1011.02
2018-10-09T09:43:08.981Z,1011.03
2018-10-09T09:44:08.986Z,1011.01
2018-10-09T09:45:08.977Z,1011.01
2018-10-09T09:46:08.970Z,1010.97
2018-10-09T09:47:08.936Z,1011.00
2018-10-09T09:48:08.930Z,1010.98
2018-10-09T09:49:08.914Z,1010.98
2018-10-09T09:50:08.926Z,1010.99
2018-10-09T09:51:08.892Z,1010.95
2018-10-09T09:52:08.920Z,1010.94
2018-10-09T09:53:08.872Z,1010.94
2018-10-09T09:54:08.859Z,1010.97
2018-10-09T09:55:08.887Z,1010.97
2018-10-09T09:56:08.837Z,1010.98
2018-10-09T09:57:08.826Z,1011.05
2018-10-09T09:58:09.041Z,1011.07
2018-10-09T09:59:08.943Z,1011.04
2018-10-09T10:00:08.794Z,1011.07
2018-10-09T10:01:08.812Z,1011.03
2018-10-09T10:02:08.772Z,1011.05
2018-10-09T10:03:08.760Z,1011.03
2018-10-09T10:04:08.749Z,1011.05
2018-10-09T10:05:08.749Z,1011.04
2018-10-09T10:06:08.753Z,1011.07
2018-10-09T10:07:08.744Z,1011.03
2018-10-09T10:08:08.706Z,1010.99
2018-10-09T10:09:08.757Z,1011.09
2018-10-09T10:10:08.685Z,1011.01
2018-10-09T10:11:08.712Z,1011.02
2018-10-09T10:12:08.661Z,1011.05
2018-10-09T10:13:08.655Z,1011.03
2018-10-09T10:14:08.663Z,1011.04
2018-10-09T10:15:08.628Z,1011.00
2018-10-09T10:16:08.619Z,1011.01
2018-10-09T10:17:08.628Z,1011.04
2018-10-09T10:18:08.595Z,1010.95
2018-10-09T10:19:08.586Z,1010.99
2018-10-09T10:20:08.576Z,1010.96
2018-10-09T10:21:08.569Z,1010.92
2018-10-09T10:22:08.572Z,1010.94
2018-10-09T10:23:08.543Z,1010.92
2018-10-09T10:24:08.533Z,1010.91
2018-10-09T10:25:08.520Z,1010.96
2018-10-09T10:26:08.509Z,1010.97
2018-10-09T10:27:08.563Z,1010.96
2018-10-09T10:28:08.492Z,1010.95
2018-10-09T10:29:08.598Z,1010.95
2018-10-09T10:30:08.466Z,1010.97
2018-10-09T10:31:08.467Z,1010.96
2018-10-09T10:32:08.452Z,1010.94
2018-10-09T10:33:08.456Z,1010.94
2018-10-09T10:34:08.423Z,1010.95
2018-10-09T10:35:08.432Z,1010.97
2018-10-09T10:36:08.401Z,1010.92
2018-10-09T10:37:08.392Z,1010.96
2018-10-09T10:38:08.398Z,1010.94
2018-10-09T10:39:08.366Z,1010.97
2018-10-09T10:40:08.388Z,1010.90
2018-10-09T10:41:08.345Z,1010.86
2018-10-09T10:42:08.355Z,1010.82
2018-10-09T10:43:08.359Z,1010.82
2018-10-09T10:44:08.327Z,1010.81
2018-10-09T10:45:08.306Z,1010.87
2018-10-09T10:46:08.295Z,1010.81
2018-10-09T10:47:08.278Z,1010.92
2018-10-09T10:48:08.272Z,1010.88
2018-10-09T10:49:08.339Z,1010.88
2018-10-09T10:50:08.255Z,1010.90
2018-10-09T10:51:08.235Z,1010.89
2018-10-09T10:52:08.224Z,1010.86
2018-10-09T10:53:08.216Z,1010.81
2018-10-09T10:54:08.227Z,1010.87
2018-10-09T10:55:08.332Z,1010.79
2018-10-09T10:56:08.190Z,1010.80
2018-10-09T10:57:08.170Z,1010.78
2018-10-09T10:58:08.171Z,1010.75
2018-10-09T10:59:08.179Z,1010.72
2018-10-09T11:00:08.142Z,1010.76
2018-10-09T11:01:08.136Z,1010.82
2018-10-09T11:02:08.117Z,1010.76
2018-10-09T11:03:08.104Z,1010.80
2018-10-09T11:04:08.097Z,1010.83
2018-10-09T11:05:08.122Z,1010.78
2018-10-09T11:06:08.072Z,1010.74
2018-10-09T11:07:08.060Z,1010.68
2018-10-09T11:08:08.076Z,1010.73
2018-10-09T11:09:08.109Z,1010.71
2018-10-09T11:10:08.064Z,1010.70
2018-10-09T11:11:08.018Z,1010.73
2018-10-09T11:12:08.009Z,1010.71
2018-10-09T11:13:08.000Z,1010.63
2018-10-09T11:14:07.983Z,1010.62
2018-10-09T11:15:07.989Z,1010.60
2018-10-09T11:16:07.980Z,1010.56
2018-10-09T11:17:07.949Z,1010.57
2018-10-09T11:18:07.938Z,1010.50
2018-10-09T11:19:07.934Z,1010.45
2018-10-09T11:20:07.917Z,1010.43
2018-10-09T11:21:08.025Z,1010.47
2018-10-09T11:22:07.897Z,1010.46
2018-10-09T11:23:07.894Z,1010.49
2018-10-09T11:24:07.874Z,1010.40
2018-10-09T11:25:07.863Z,1010.43
2018-10-09T11:26:07.880Z,1010.42
2018-10-09T11:27:07.853Z,1010.41
2018-10-09T11:28:07.832Z,1010.47
2018-10-09T11:29:07.834Z,1010.42
2018-10-09T11:30:07.806Z,1010.36
2018-10-09T11:31:07.794Z,1010.43
2018-10-09T11:32:07.799Z,1010.45
2018-10-09T11:33:07.772Z,1010.36
2018-10-09T11:34:07.765Z,1010.34
2018-10-09T11:35:07.753Z,1010.38
2018-10-09T11:36:07.740Z,1010.38
2018-10-09T11:37:07.747Z,1010.40
2018-10-09T11:38:07.721Z,1010.42
2018-10-09T11:39:07.707Z,1010.39
2018-10-09T11:40:07.700Z,1010.38
2018-10-09T11:41:07.682Z,1010.36
2018-10-09T11:42:07.700Z,1010.42
2018-10-09T11:43:07.668Z,1010.37
2018-10-09T11:44:07.649Z,1010.39
2018-10-09T11:45:07.644Z,1010.37
2018-10-09T11:46:07.658Z,1010.37
2018-10-09T11:47:07.619Z,1010.39
2018-10-09T11:48:07.605Z,1010.39
2018-10-09T11:49:07.594Z,1010.35
2018-10-09T11:50:07.588Z,1010.35
2018-10-09T11:51:07.582Z,1010.37
2018-10-09T11:52:07.580Z,1010.36
2018-10-09T11:53:07.550Z,1010.39
2018-10-09T11:54:07.538Z,1010.35
2018-10-09T11:55:07.528Z,1010.44
2018-10-09T11:56:07.523Z,1010.37
2018-10-09T11:57:07.531Z,1010.31
2018-10-09T11:58:07.494Z,1010.36
2018-10-09T11:59:07.579Z,1010.34
2018-10-09T12:00:07.475Z,1010.32
2018-10-09T12:01:07.466Z,1010.28
2018-10-09T12:02:07.482Z,1010.25
2018-10-09T12:03:07.439Z,1010.29
2018-10-09T12:04:07.427Z,1010.25
2018-10-09T12:05:07.416Z,1010.24
2018-10-09T12:06:07.439Z,1010.23
2018-10-09T12:07:07.414Z,1010.25
2018-10-09T12:08:07.415Z,1010.24
2018-10-09T12:09:07.381Z,1010.23
2018-10-09T12:10:07.364Z,1010.25
2018-10-09T12:11:07.369Z,1010.23
2018-10-09T12:12:07.341Z,1010.22
2018-10-09T12:13:07.375Z,1010.22
2018-10-09T12:14:07.324Z,1010.24
2018-10-09T12:15:07.305Z,1010.22
2018-10-09T12:16:07.294Z,1010.14
2018-10-09T12:17:07.296Z,1010.17
2018-10-09T12:18:07.305Z,1010.18
2018-10-09T12:19:07.265Z,1010.18
2018-10-09T12:20:07.278Z,1010.20
2018-10-09T12:21:07.243Z,1010.21
2018-10-09T12:22:07.231Z,1010.19
2018-10-09T12:23:07.217Z,1010.19
2018-10-09T12:24:07.225Z,1010.16
2018-10-09T12:25:07.194Z,1010.14
2018-10-09T12:26:07.195Z,1010.08
2018-10-09T12:27:07.240Z,1010.17
2018-10-09T12:28:07.195Z,1010.15
2018-10-09T12:29:07.151Z,1010.10
2018-10-09T12:30:07.144Z,1010.07
2018-10-09T12:31:07.134Z,1010.14
2018-10-09T12:32:07.119Z,1010.11
2018-10-09T12:33:07.107Z,1010.11
2018-10-09T12:34:07.112Z,1010.07
2018-10-09T12:35:07.085Z,1010.11
2018-10-09T12:36:07.075Z,1010.12
2018-10-09T12:37:07.070Z,1010.10
2018-10-09T12:38:07.053Z,1010.07
2018-10-09T12:39:07.073Z,1010.06
2018-10-09T12:40:07.052Z,1010.07
2018-10-09T12:41:07.020Z,1010.07
2018-10-09T12:42:07.034Z,1010.09
2018-10-09T12:43:06.997Z,1010.08
2018-10-09T12:44:07.020Z,1010.01
2018-10-09T12:45:06.977Z,1010.04
2018-10-09T12:46:06.966Z,1009.98
2018-10-09T12:47:06.957Z,1009.97
2018-10-09T12:48:06.946Z,1009.99
2018-10-09T12:49:06.931Z,1009.91
2018-10-09T12:50:06.940Z,1009.95
2018-10-09T12:51:06.914Z,1009.97
2018-10-09T12:52:06.902Z,1009.89
2018-10-09T12:53:07.102Z,1009.84
2018-10-09T12:54:06.908Z,1009.83
2018-10-09T12:55:06.873Z,1009.83
2018-10-09T12:56:06.860Z,1009.81
2018-10-09T12:57:06.859Z,1009.87
2018-10-09T12:58:06.832Z,1009.83
2018-10-09T12:59:06.880Z,1009.82
2018-10-09T13:00:06.810Z,1009.83
2018-10-09T13:01:06.803Z,1009.78
2018-10-09T13:02:06.787Z,1009.80
2018-10-09T13:03:06.830Z,1009.73
2018-10-09T13:04:06.796Z,1009.79
2018-10-09T13:05:06.756Z,1009.77
2018-10-09T13:06:06.749Z,1009.79
2018-10-09T13:07:06.735Z,1009.79
2018-10-09T13:08:06.722Z,1009.75
2018-10-09T13:09:06.740Z,1009.81
2018-10-09T13:10:06.700Z,1009.81
2018-10-09T13:11:06.691Z,1009.76
2018-10-09T13:12:06.683Z,1009.75
2018-10-09T13:13:06.677Z,1009.76
2018-10-09T13:14:06.665Z,1009.73
2018-10-09T13:15:06.671Z,1009.74
2018-10-09T13:16:06.635Z,1009.77
2018-10-09T13:17:06.677Z,1009.79
2018-10-09T13:18:06.613Z,1009.78
2018-10-09T13:19:06.610Z,1009.71
2018-10-09T13:20:06.619Z,1009.72
2018-10-09T13:21:06.787Z,1009.74
2018-10-09T13:22:06.857Z,1009.75
2018-10-09T13:23:06.556Z,1009.68
2018-10-09T13:24:06.551Z,1009.70
2018-10-09T13:25:06.563Z,1009.71
2018-10-09T13:26:06.532Z,1009.73
2018-10-09T13:27:06.533Z,1009.72
2018-10-09T13:28:06.501Z,1009.78
2018-10-09T13:29:06.496Z,1009.76
2018-10-09T13:30:06.483Z,1009.68
2018-10-09T13:31:06.490Z,1009.70
2018-10-09T13:32:06.475Z,1009.70
2018-10-09T13:33:06.454Z,1009.71
2018-10-09T13:34:06.478Z,1009.75
2018-10-09T13:35:06.435Z,1009.70
2018-10-09T13:36:06.430Z,1009.69
2018-10-09T13:37:06.410Z,1009.65
2018-10-09T13:38:06.444Z,1009.68
2018-10-09T13:39:06.381Z,1009.72
2018-10-09T13:40:06.369Z,1009.65
2018-10-09T13:41:06.434Z,1009.63
2018-10-09T13:42:06.347Z,1009.61
2018-10-09T13:43:06.338Z,1009.61
2018-10-09T13:44:06.427Z,1009.65
2018-10-09T13:45:06.315Z,1009.57
2018-10-09T13:46:06.316Z,1009.62
2018-10-09T13:47:06.324Z,1009.60
2018-10-09T13:48:06.287Z,1009.56
2018-10-09T13:49:06.274Z,1009.59
2018-10-09T13:50:06.291Z,1009.60
2018-10-09T13:51:06.254Z,1009.58
2018-10-09T13:52:06.258Z,1009.59
2018-10-09T13:53:06.228Z,1009.56
2018-10-09T13:54:06.227Z,1009.60
2018-10-09T13:55:06.219Z,1009.55
2018-10-09T13:56:06.193Z,1009.56
2018-10-09T13:57:06.238Z,1009.58
2018-10-09T13:58:06.205Z,1009.51
2018-10-09T13:59:06.172Z,1009.55
2018-10-09T14:00:06.149Z,1009.57
2018-10-09T14:01:06.138Z,1009.56
2018-10-09T14:02:06.127Z,1009.58
2018-10-09T14:03:06.264Z,1009.53
2018-10-09T14:04:06.123Z,1009.55
2018-10-09T14:05:06.098Z,1009.55
2018-10-09T14:06:06.104Z,1009.56
2018-10-09T14:07:06.082Z,1009.51
2018-10-09T14:08:06.082Z,1009.53
2018-10-09T14:09:06.053Z,1009.55
2018-10-09T14:10:06.135Z,1009.50
2018-10-09T14:11:06.036Z,1009.49
2018-10-09T14:12:06.025Z,1009.44
2018-10-09T14:13:06.008Z,1009.42
2018-10-09T14:14:05.997Z,1009.44
2018-10-09T14:15:06.067Z,1009.42
2018-10-09T14:16:05.997Z,1009.44
2018-10-09T14:17:05.967Z,1009.48
2018-10-09T14:18:05.951Z,1009.48
2018-10-09T14:19:05.940Z,1009.46
2018-10-09T14:20:05.936Z,1009.51
2018-10-09T14:21:05.941Z,1009.48
2018-10-09T14:22:05.907Z,1009.48
2018-10-09T14:23:05.953Z,1009.51
2018-10-09T14:24:05.886Z,1009.45
2018-10-09T14:25:05.876Z,1009.49
2018-10-09T14:26:05.903Z,1009.45
2018-10-09T14:27:05.852Z,1009.50
2018-10-09T14:28:05.846Z,1009.42
2018-10-09T14:29:05.834Z,1009.42
2018-10-09T14:30:05.821Z,1009.50
2018-10-09T14:31:05.810Z,1009.44
2018-10-09T14:32:05.832Z,1009.42
2018-10-09T14:33:05.786Z,1009.46
2018-10-09T14:34:05.784Z,1009.43
2018-10-09T14:35:05.844Z,1009.43
2018-10-09T14:36:05.754Z,1009.44
2018-10-09T14:37:05.761Z,1009.46
2018-10-09T14:38:05.755Z,1009.40
2018-10-09T14:39:05.721Z,1009.39
2018-10-09T14:40:05.726Z,1009.43
2018-10-09T14:41:05.712Z,1009.38
2018-10-09T14:42:05.723Z,1009.37
2018-10-09T14:43:05.676Z,1009.40
2018-10-09T14:44:05.788Z,1009.39
2018-10-09T14:45:05.657Z,1009.35
2018-10-09T14:46:05.646Z,1009.33
2018-10-09T14:47:05.657Z,1009.38
2018-10-09T14:48:05.639Z,1009.32
2018-10-09T14:49:05.614Z,1009.27
2018-10-09T14:50:05.600Z,1009.31
2018-10-09T14:51:05.589Z,1009.29
2018-10-09T14:52:05.585Z,1009.32
2018-10-09T14:53:05.589Z,1009.27
2018-10-09T14:54:05.557Z,1009.34
2018-10-09T14:55:05.546Z,1009.26
2018-10-09T14:56:05.539Z,1009.22
2018-10-09T14:57:05.524Z,1009.22
2018-10-09T14:58:05.540Z,1009.31
2018-10-09T14:59:05.501Z,1009.27
2018-10-09T15:00:05.490Z,1009.24
2018-10-09T15:01:05.484Z,1009.25
2018-10-09T15:02:05.468Z,1009.24
2018-10-09T15:03:05.459Z,1009.26
2018-10-09T15:04:05.469Z,1009.24
2018-10-09T15:05:05.435Z,1009.28
2018-10-09T15:06:05.426Z,1009.32
2018-10-09T15:07:05.417Z,1009.35
2018-10-09T15:08:05.402Z,1009.23
2018-10-09T15:09:05.408Z,1009.32
2018-10-09T15:10:05.392Z,1009.29
2018-10-09T15:11:05.369Z,1009.36
2018-10-09T15:12:05.359Z,1009.30
2018-10-09T15:13:05.348Z,1009.26
2018-10-09T15:14:05.363Z,1009.30
2018-10-09T15:15:05.334Z,1009.30
2018-10-09T15:16:05.321Z,1009.32
2018-10-09T15:17:05.949Z,1009.29
2018-10-09T15:18:05.292Z,1009.30
2018-10-09T15:19:05.285Z,1009.27
2018-10-09T15:20:05.294Z,1009.20
2018-10-09T15:21:05.269Z,1009.24
2018-10-09T15:22:05.293Z,1009.19
2018-10-09T15:23:05.238Z,1009.23
2018-10-09T15:24:05.236Z,1009.25
2018-10-09T15:25:05.235Z,1009.28
2018-10-09T15:26:05.227Z,1009.26
2018-10-09T15:27:05.208Z,1009.32
2018-10-09T15:28:05.187Z,1009.27
2018-10-09T15:29:05.195Z,1009.27
2018-10-09T15:30:05.230Z,1009.31
2018-10-09T15:31:05.153Z,1009.26
2018-10-09T15:32:05.139Z,1009.26
2018-10-09T15:33:05.129Z,1009.35
2018-10-09T15:34:05.120Z,1009.25
2018-10-09T15:35:05.111Z,1009.30
2018-10-09T15:36:05.132Z,1009.31
2018-10-09T15:37:05.085Z,1009.32
2018-10-09T15:38:05.083Z,1009.32
2018-10-09T15:39:05.081Z,1009.30
2018-10-09T15:40:05.107Z,1009.34
2018-10-09T15:41:05.114Z,1009.33
2018-10-09T15:42:05.029Z,1009.31
2018-10-09T15:43:05.025Z,1009.31
2018-10-09T15:44:05.014Z,1009.36
2018-10-09T15:45:05.002Z,1009.34
2018-10-09T15:46:05.075Z,1009.33
2018-10-09T15:47:05.013Z,1009.30
2018-10-09T15:48:04.965Z,1009.31
2018-10-09T15:49:04.953Z,1009.27
2018-10-09T15:50:04.941Z,1009.30
2018-10-09T15:51:04.982Z,1009.25
2018-10-09T15:52:04.961Z,1009.26
2018-10-09T15:53:04.912Z,1009.29
2018-10-09T15:54:04.896Z,1009.25
2018-10-09T15:55:04.892Z,1009.28
2018-10-09T15:56:04.879Z,1009.30
2018-10-09T15:57:04.901Z,1009.24
2018-10-09T15:58:04.854Z,1009.33
2018-10-09T15:59:04.841Z,1009.35
2018-10-09T16:00:04.831Z,1009.29
2018-10-09T16:01:04.853Z,1009.33
2018-10-09T16:02:04.843Z,1009.34
2018-10-09T16:03:04.798Z,1009.32
2018-10-09T16:04:04.802Z,1009.28
2018-10-09T16:05:04.776Z,1009.31
2018-10-09T16:06:04.794Z,1009.40
2018-10-09T16:07:04.807Z,1009.33
2018-10-09T16:08:04.768Z,1009.32
2018-10-09T16:09:04.734Z,1009.32
2018-10-09T16:10:04.726Z,1009.38
2018-10-09T16:11:04.712Z,1009.31
2018-10-09T16:12:04.706Z,1009.37
2018-10-09T16:13:04.719Z,1009.39
2018-10-09T16:14:04.692Z,1009.38
2018-10-09T16:15:04.667Z,1009.43
2018-10-09T16:16:04.654Z,1009.38
2018-10-09T16:17:04.645Z,1009.38
2018-10-09T16:18:04.679Z,1009.41
2018-10-09T16:19:04.627Z,1009.40
2018-10-09T16:20:04.614Z,1009.40
2018-10-09T16:21:04.646Z,1009.41
2018-10-09T16:22:04.594Z,1009.48
2018-10-09T16:23:04.576Z,1009.43
2018-10-09T16:24:04.604Z,1009.51
2018-10-09T16:25:04.559Z,1009.48
2018-10-09T16:26:04.555Z,1009.50
2018-10-09T16:27:04.535Z,1009.46
2018-10-09T16:28:04.522Z,1009.47
2018-10-09T16:29:04.530Z,1009.45
2018-10-09T16:30:04.502Z,1009.49
2018-10-09T16:31:04.499Z,1009.52
2018-10-09T16:32:04.490Z,1009.54
2018-10-09T16:33:04.468Z,1009.52
2018-10-09T16:34:04.486Z,1009.53
2018-10-09T16:35:04.444Z,1009.52
2018-10-09T16:36:04.434Z,1009.56
2018-10-09T16:37:04.433Z,1009.59
2018-10-09T16:38:04.419Z,1009.56
2018-10-09T16:39:04.439Z,1009.58
2018-10-09T16:40:04.396Z,1009.61
2018-10-09T16:41:04.380Z,1009.60
2018-10-09T16:42:04.370Z,1009.60
2018-10-09T16:43:04.358Z,1009.61
2018-10-09T16:44:04.344Z,1009.67
2018-10-09T16:45:04.352Z,1009.65
2018-10-09T16:46:04.337Z,1009.65
2018-10-09T16:47:04.400Z,1009.69
2018-10-09T16:48:04.300Z,1009.62
2018-10-09T16:49:04.292Z,1009.67
2018-10-09T16:50:04.306Z,1009.70
2018-10-09T16:51:04.269Z,1009.68
2018-10-09T16:52:04.259Z,1009.71
2018-10-09T16:53:04.248Z,1009.67
2018-10-09T16:54:04.238Z,1009.73
2018-10-09T16:55:04.242Z,1009.72
2018-10-09T16:56:04.211Z,1009.66
2018-10-09T16:57:04.204Z,1009.71
2018-10-09T16:58:04.190Z,1009.71
2018-10-09T16:59:04.180Z,1009.75
2018-10-09T17:00:04.202Z,1009.72
2018-10-09T17:01:04.161Z,1009.80
2018-10-09T17:02:04.151Z,1009.75
2018-10-09T17:03:04.134Z,1009.76
2018-10-09T17:04:04.123Z,1009.71
2018-10-09T17:05:04.112Z,1009.70
2018-10-09T17:06:04.124Z,1009.66
2018-10-09T17:07:04.099Z,1009.69
2018-10-09T17:08:04.085Z,1009.68
2018-10-09T17:09:04.069Z,1009.65
2018-10-09T17:10:04.081Z,1009.66
2018-10-09T17:11:04.074Z,1009.66
2018-10-09T17:12:04.039Z,1009.68
2018-10-09T17:13:04.025Z,1009.65
2018-10-09T17:14:04.014Z,1009.66
2018-10-09T17:15:04.007Z,1009.66
2018-10-09T17:16:04.018Z,1009.65
2018-10-09T17:17:03.981Z,1009.66
2018-10-09T17:18:03.968Z,1009.68
2018-10-09T17:19:03.957Z,1009.67
2018-10-09T17:20:03.946Z,1009.72
2018-10-09T17:21:03.934Z,1009.77
2018-10-09T17:22:03.946Z,1009.81
2018-10-09T17:23:03.912Z,1009.75
2018-10-09T17:24:03.904Z,1009.77
2018-10-09T17:25:03.893Z,1009.79
2018-10-09T17:26:03.878Z,1009.77
2018-10-09T17:27:03.889Z,1009.79
2018-10-09T17:28:03.866Z,1009.81
2018-10-09T17:29:03.851Z,1009.79
2018-10-09T17:30:03.843Z,1009.83
2018-10-09T17:31:03.829Z,1009.84
2018-10-09T17:32:03.832Z,1009.76
2018-10-09T17:33:03.892Z,1009.79
2018-10-09T17:34:03.792Z,1009.77
2018-10-09T17:35:03.785Z,1009.82
2018-10-09T17:36:03.780Z,1009.84
2018-10-09T17:37:03.788Z,1009.85
2018-10-09T17:38:03.750Z,1009.87
2018-10-09T17:39:03.777Z,1009.86
2018-10-09T17:40:03.725Z,1009.91
2018-10-09T17:41:03.720Z,1009.86
2018-10-09T17:42:03.823Z,1009.86
2018-10-09T17:43:03.691Z,1009.88
2018-10-09T17:44:03.682Z,1009.90
2018-10-09T17:45:03.677Z,1009.85
2018-10-09T17:46:03.662Z,1009.87
2018-10-09T17:47:03.742Z,1009.89
2018-10-09T17:48:03.658Z,1009.92
2018-10-09T17:49:03.625Z,1009.87
2018-10-09T17:50:03.613Z,1009.93
2018-10-09T17:51:03.608Z,1009.92
2018-10-09T17:52:03.595Z,1009.90
2018-10-09T17:53:03.600Z,1009.92
2018-10-09T17:54:03.602Z,1009.91
2018-10-09T17:55:03.558Z,1009.91
2018-10-09T17:56:03.548Z,1009.90
2018-10-09T17:57:03.536Z,1009.91
2018-10-09T17:58:03.558Z,1009.86
2018-10-09T17:59:03.521Z,1009.99
2018-10-09T18:00:03.505Z,1009.91
2018-10-09T18:01:03.491Z,1009.92
2018-10-09T18:02:03.483Z,1009.95
2018-10-09T18:03:03.484Z,1009.95
2018-10-09T18:04:03.475Z,1009.95
2018-10-09T18:05:03.468Z,1009.89
2018-10-09T18:06:03.436Z,1009.92
2018-10-09T18:07:03.430Z,1009.93
2018-10-09T18:08:03.415Z,1009.91
2018-10-09T18:09:03.425Z,1009.89
2018-10-09T18:10:03.400Z,1009.95
2018-10-09T18:11:03.384Z,1009.86
2018-10-09T18:12:03.374Z,1009.93
2018-10-09T18:13:03.359Z,1009.89
2018-10-09T18:14:03.377Z,1009.92
2018-10-09T18:15:03.391Z,1009.90
2018-10-09T18:16:03.337Z,1009.90
2018-10-09T18:17:03.314Z,1009.91
2018-10-09T18:18:03.305Z,1009.94
2018-10-09T18:19:03.296Z,1009.92
2018-10-09T18:20:03.300Z,1009.88
2018-10-09T18:21:03.272Z,1009.92
2018-10-09T18:22:03.260Z,1009.92
2018-10-09T18:23:03.248Z,1009.89
2018-10-09T18:24:03.239Z,1009.93
2018-10-09T18:25:03.250Z,1009.90
2018-10-09T18:26:03.218Z,1009.89
2018-10-09T18:27:03.205Z,1009.89
2018-10-09T18:28:03.217Z,1009.88
2018-10-09T18:29:03.184Z,1009.90
2018-10-09T18:30:03.207Z,1009.84
2018-10-09T18:31:03.161Z,1009.88
2018-10-09T18:32:03.153Z,1009.87
2018-10-09T18:33:03.393Z,1009.90
2018-10-09T18:34:03.140Z,1009.88
2018-10-09T18:35:03.139Z,1009.85
2018-10-09T18:36:03.124Z,1009.90
2018-10-09T18:37:03.094Z,1009.84
2018-10-09T18:38:03.092Z,1009.84
2018-10-09T18:39:03.075Z,1009.86
2018-10-09T18:40:03.073Z,1009.89
2018-10-09T18:41:03.093Z,1009.90
2018-10-09T18:42:03.103Z,1009.92
2018-10-09T18:43:03.029Z,1009.92
2018-10-09T18:44:03.077Z,1009.96
2018-10-09T18:45:03.011Z,1009.96
2018-10-09T18:46:03.022Z,1009.92
2018-10-09T18:47:02.983Z,1009.92
2018-10-09T18:48:02.976Z,1009.99
2018-10-09T18:49:02.967Z,1009.99
2018-10-09T18:50:02.950Z,1009.98
2018-10-09T18:51:02.949Z,1010.01
2018-10-09T18:52:02.956Z,1010.01
2018-10-09T18:53:02.918Z,1009.98
2018-10-09T18:54:02.910Z,1009.92
2018-10-09T18:55:02.895Z,1009.95
2018-10-09T18:56:02.886Z,1009.99
2018-10-09T18:57:02.907Z,1009.98
2018-10-09T18:58:02.865Z,1009.98
2018-10-09T18:59:02.856Z,1009.98
2018-10-09T19:00:02.843Z,1009.97
2018-10-09T19:01:02.831Z,1010.02
2018-10-09T19:02:02.848Z,1009.99
2018-10-09T19:03:02.811Z,1010.01
2018-10-09T19:04:02.797Z,1009.99
2018-10-09T19:05:02.793Z,1010.01
2018-10-09T19:06:02.783Z,1010.01
2018-10-09T19:07:02.772Z,1009.98
2018-10-09T19:08:02.772Z,1009.98
2018-10-09T19:09:02.746Z,1009.96
2018-10-09T19:10:02.731Z,1010.03
2018-10-09T19:11:02.721Z,1009.99
2018-10-09T19:12:02.712Z,1010.03
2018-10-09T19:13:02.715Z,1010.06
2018-10-09T19:14:02.687Z,1010.06
2018-10-09T19:15:02.688Z,1010.05
2018-10-09T19:16:02.668Z,1010.06
2018-10-09T19:17:02.663Z,1010.13
2018-10-09T19:18:02.777Z,1010.08
2018-10-09T19:19:02.632Z,1010.10
2018-10-09T19:20:02.623Z,1010.07
2018-10-09T19:21:02.626Z,1010.18
2018-10-09T19:22:02.599Z,1010.11
2018-10-09T19:23:02.592Z,1010.16
2018-10-09T19:24:02.597Z,1010.17
2018-10-09T19:25:02.566Z,1010.21
2018-10-09T19:26:02.560Z,1010.24
2018-10-09T19:27:02.559Z,1010.17
2018-10-09T19:28:02.536Z,1010.19
2018-10-09T19:29:02.541Z,1010.25
2018-10-09T19:30:02.515Z,1010.27
2018-10-09T19:31:02.507Z,1010.29
2018-10-09T19:32:02.488Z,1010.25
2018-10-09T19:33:02.503Z,1010.30
2018-10-09T19:34:02.513Z,1010.25
2018-10-09T19:35:02.460Z,1010.28
2018-10-09T19:36:02.446Z,1010.25
2018-10-09T19:37:02.435Z,1010.29
2018-10-09T19:38:02.425Z,1010.27
2018-10-09T19:39:02.418Z,1010.26
2018-10-09T19:40:02.419Z,1010.34
2018-10-09T19:41:02.398Z,1010.26
2018-10-09T19:42:02.388Z,1010.29
2018-10-09T19:43:02.368Z,1010.28
2018-10-09T19:44:02.371Z,1010.28
2018-10-09T19:45:02.369Z,1010.28
2018-10-09T19:46:02.335Z,1010.27
2018-10-09T19:47:02.326Z,1010.26
2018-10-09T19:48:02.317Z,1010.33
2018-10-09T19:49:02.308Z,1010.30
2018-10-09T19:50:02.323Z,1010.35
2018-10-09T19:51:02.488Z,1010.31
2018-10-09T19:52:02.274Z,1010.28
2018-10-09T19:53:02.260Z,1010.33
2018-10-09T19:54:02.251Z,1010.25
2018-10-09T19:55:02.244Z,1010.32
2018-10-09T19:56:02.248Z,1010.37
2018-10-09T19:57:02.215Z,1010.42
2018-10-09T19:58:02.207Z,1010.37
2018-10-09T19:59:02.196Z,1010.40
2018-10-09T20:00:02.183Z,1010.39
2018-10-09T20:01:02.252Z,1010.41
2018-10-09T20:02:02.163Z,1010.40
2018-10-09T20:03:02.165Z,1010.42
2018-10-09T20:04:02.142Z,1010.36
2018-10-09T20:05:02.128Z,1010.38
2018-10-09T20:06:02.145Z,1010.36
2018-10-09T20:07:02.112Z,1010.36
2018-10-09T20:08:02.107Z,1010.38
2018-10-09T20:09:02.106Z,1010.40
2018-10-09T20:10:02.082Z,1010.35
2018-10-09T20:11:02.095Z,1010.41
2018-10-09T20:12:02.054Z,1010.44
2018-10-09T20:13:02.048Z,1010.42
2018-10-09T20:14:02.034Z,1010.44
2018-10-09T20:15:02.019Z,1010.38
2018-10-09T20:16:02.011Z,1010.35
2018-10-09T20:17:02.019Z,1010.39
2018-10-09T20:18:01.989Z,1010.39
2018-10-09T20:19:01.986Z,1010.39
2018-10-09T20:20:01.967Z,1010.40
2018-10-09T20:21:01.958Z,1010.40
2018-10-09T20:22:01.970Z,1010.39
2018-10-09T20:23:01.932Z,1010.45
2018-10-09T20:24:01.921Z,1010.37
2018-10-09T20:25:01.911Z,1010.38
2018-10-09T20:26:01.900Z,1010.37
2018-10-09T20:27:01.922Z,1010.43
2018-10-09T20:28:01.877Z,1010.43
2018-10-09T20:29:01.868Z,1010.44
2018-10-09T20:30:01.857Z,1010.43